Time;durP1;ratioP1;P1;durP2;ratioP2;P2;SDS_P1;SDS_P2;PMS_P1;PMS_P2;Temp;Humidity;BMP_temperature;BMP_pressure;BME280_temperature;BME280_humidity;BME280_pressure;Samples;Min_cycle;Max_cycle;Signal;HPM_P1;HPM_P2
2022/11/20 00:00:05;;;;;;;11.30;6.03;;;;;;;-0.28;81.66;99537.31;5045298;28;20049;-48
2022/11/20 00:02:33;;;;;;;15.95;6.70;;;;;;;-0.28;81.69;99533.91;5029756;28;20463;-49
2022/11/20 00:04:58;;;;;;;13.85;6.40;;;;;;;-0.32;81.94;99538.16;5011869;28;20034;-50
2022/11/20 00:07:24;;;;;;;13.80;6.80;;;;;;;-0.28;81.52;99541.56;5029054;28;20068;-48
2022/11/20 00:09:50;;;;;;;14.73;6.78;;;;;;;-0.31;81.40;99541.53;5012426;28;20708;-46
2022/11/20 00:12:16;;;;;;;13.85;7.05;;;;;;;-0.35;81.49;99544.91;5030295;28;20053;-47
2022/11/20 00:14:42;;;;;;;14.93;6.50;;;;;;;-0.38;81.91;99544.91;5030449;28;20148;-47
2022/11/20 00:17:08;;;;;;;15.48;6.68;;;;;;;-0.48;81.78;99523.56;5028770;28;20054;-47
2022/11/20 00:19:33;;;;;;;15.60;6.72;;;;;;;-0.31;81.66;99539.84;5012200;28;20041;-52
2022/11/20 00:21:59;;;;;;;16.85;7.28;;;;;;;-0.32;81.77;99535.59;5029500;28;20905;-49
2022/11/20 00:24:25;;;;;;;16.83;6.65;;;;;;;-0.30;81.85;99544.09;5044706;28;20040;-49
2022/11/20 00:26:51;;;;;;;13.60;6.82;;;;;;;-0.31;81.33;99546.63;5028972;28;20048;-49
2022/11/20 00:29:17;;;;;;;15.23;7.53;;;;;;;-0.33;81.52;99543.25;5012047;28;20461;-48
2022/11/20 00:31:43;;;;;;;13.70;7.00;;;;;;;-0.29;81.78;99544.97;5030406;28;20037;-51
2022/11/20 00:34:09;;;;;;;10.25;5.85;;;;;;;-0.28;81.28;99541.56;5029127;28;20037;-49
2022/11/20 00:36:35;;;;;;;11.82;5.93;;;;;;;-0.35;81.14;99550.88;5028283;28;20124;-51
2022/11/20 00:39:02;;;;;;;16.60;7.07;;;;;;;-0.53;81.68;99517.56;5027391;28;20140;-48
2022/11/20 00:41:28;;;;;;;14.85;6.93;;;;;;;-0.38;81.52;99532.13;5029880;28;20424;-47
2022/11/20 00:43:55;;;;;;;12.95;6.70;;;;;;;-0.46;81.73;99512.50;5027894;28;20108;-50
2022/11/20 00:46:23;;;;;;;11.80;6.13;;;;;;;-0.30;81.68;99539.00;5028469;28;20041;-47
2022/11/20 00:48:49;;;;;;;13.05;6.30;;;;;;;-0.31;81.44;99542.38;5028745;28;20041;-46
2022/11/20 00:51:17;;;;;;;11.23;6.15;;;;;;;-0.33;81.30;99527.91;5045344;28;20044;-48
2022/11/20 00:53:44;;;;;;;11.30;6.10;;;;;;;-0.52;81.27;99502.25;5024200;28;20037;-49
2022/11/20 00:56:12;;;;;;;12.55;6.32;;;;;;;-0.29;81.08;99537.31;5027799;28;20055;-48
2022/11/20 00:58:39;;;;;;;12.13;5.50;;;;;;;-0.30;81.30;99540.69;4995801;28;20037;-47
2022/11/20 01:01:11;;;;;;;12.45;6.00;;;;;;;-0.30;81.23;99540.69;5011780;28;20042;-50
2022/11/20 01:03:39;;;;;;;11.30;5.53;;;;;;;-0.31;81.21;99542.38;5012198;28;20042;-49
2022/11/20 01:06:14;;;;;;;12.75;5.90;;;;;;;-0.30;81.29;99539.00;5027997;28;20527;-52
2022/11/20 01:08:41;;;;;;;11.10;5.80;;;;;;;-0.32;80.98;99535.59;5028855;28;20080;-49
2022/11/20 01:11:11;;;;;;;10.15;5.30;;;;;;;-0.32;80.75;99540.72;5028144;28;20127;-50
2022/11/20 01:13:38;;;;;;;13.82;6.25;;;;;;;-0.53;81.14;99504.81;5029063;28;20051;-48
2022/11/20 01:16:17;;;;;;;10.55;5.03;;;;;;;-0.37;80.97;99539.81;5011710;28;20043;-47
2022/11/20 01:18:46;;;;;;;10.98;5.55;;;;;;;-0.35;81.32;99543.22;4992524;28;20050;-48
2022/11/20 01:21:17;;;;;;;10.77;5.18;;;;;;;-0.39;80.89;99536.38;5016068;28;20041;-48
2022/11/20 01:23:43;;;;;;;10.90;5.28;;;;;;;-0.43;81.02;99530.41;5011431;28;20045;-47
2022/11/20 01:26:15;;;;;;;9.40;5.45;;;;;;;-0.39;81.21;99530.41;5011808;28;20575;-46
2022/11/20 01:28:42;;;;;;;13.35;5.80;;;;;;;-0.42;80.91;99532.09;5028414;28;20041;-47
2022/11/20 01:31:26;;;;;;;10.43;5.60;;;;;;;-0.35;80.85;99533.00;5027926;28;20037;-49
2022/11/20 01:33:55;;;;;;;12.43;5.57;;;;;;;-0.31;81.02;99538.97;5047879;28;20145;-47
2022/11/20 01:36:22;;;;;;;10.73;4.65;;;;;;;-0.33;81.27;99545.78;5035996;28;20460;-49
2022/11/20 01:38:52;;;;;;;10.07;4.95;;;;;;;-0.39;80.40;99536.38;4993925;28;20203;-51
2022/11/20 01:44:04;;;;;;;10.60;4.80;;;;;;;-0.51;80.19;99539.69;5027808;28;19920;-48
2022/11/20 01:46:31;;;;;;;7.55;4.38;;;;;;;-0.53;79.86;99541.41;5027260;28;20076;-50
2022/11/20 01:49:08;;;;;;;10.95;4.53;;;;;;;-0.53;79.89;99548.22;5027463;28;20049;-50
2022/11/20 01:52:16;;;;;;;9.30;4.68;;;;;;;-0.52;79.84;99555.00;5030220;28;20064;-47
2022/11/20 01:54:48;;;;;;;10.38;4.35;;;;;;;-0.56;79.51;99556.69;4973572;28;20125;-51
2022/11/20 01:57:16;;;;;;;10.18;4.75;;;;;;;-0.56;79.63;99564.34;5026790;28;20051;-49
2022/11/20 01:59:46;;;;;;;10.88;5.03;;;;;;;-0.54;79.46;99569.47;5031812;28;20044;-49
2022/11/20 02:02:17;;;;;;;9.30;5.10;;;;;;;-0.54;79.71;99565.22;5015106;28;20136;-48
2022/11/20 02:04:44;;;;;;;10.20;5.22;;;;;;;-0.56;79.44;99569.44;5015427;28;20045;-47
2022/11/20 02:07:10;;;;;;;8.32;5.03;;;;;;;-0.56;79.28;99566.91;5033091;28;20041;-47
2022/11/20 02:09:36;;;;;;;9.93;4.70;;;;;;;-0.55;79.49;99577.97;5031506;28;20414;-50
2022/11/20 02:12:03;;;;;;;10.00;5.10;;;;;;;-0.57;79.41;99570.28;5032141;28;20045;-48
2022/11/20 02:14:29;;;;;;;11.30;5.15;;;;;;;-0.55;79.57;99573.72;5030414;28;20041;-49
2022/11/20 02:16:55;;;;;;;10.43;5.50;;;;;;;-0.49;79.27;99583.13;5014335;28;20044;-50
2022/11/20 02:19:27;;;;;;;11.40;5.35;;;;;;;-0.52;79.56;99576.28;5031010;28;20041;-47
2022/11/20 02:22:18;;;;;;;9.60;5.00;;;;;;;-0.64;79.34;99554.91;5031968;28;20045;-48
2022/11/20 02:24:45;;;;;;;10.50;4.97;;;;;;;-0.82;79.31;99537.75;5013716;28;20034;-56
2022/11/20 02:27:13;;;;;;;9.75;4.75;;;;;;;-0.55;79.25;99583.06;5029532;28;20048;-51
2022/11/20 02:29:52;;;;;;;11.15;5.45;;;;;;;-0.72;79.12;99557.41;5031667;28;20520;-49
2022/11/20 02:32:20;;;;;;;8.43;4.38;;;;;;;-0.51;79.21;99588.22;5024284;28;20029;-48
2022/11/20 02:34:46;;;;;;;11.15;5.18;;;;;;;-0.48;79.23;99597.59;4998255;28;20505;-51
2022/11/20 02:37:11;;;;;;;9.05;4.95;;;;;;;-0.51;79.08;99595.00;5031365;28;20045;-46
2022/11/20 02:39:37;;;;;;;9.70;4.80;;;;;;;-0.54;79.06;99600.97;5031005;28;20041;-51
2022/11/20 02:42:03;;;;;;;9.40;4.53;;;;;;;-0.56;79.11;99604.34;5030375;28;20053;-46
2022/11/20 02:44:29;;;;;;;9.00;4.57;;;;;;;-0.60;79.06;99600.91;5031896;28;20053;-46
2022/11/20 02:46:58;;;;;;;8.10;4.38;;;;;;;-0.57;78.76;99605.16;5014191;28;20052;-51
2022/11/20 02:49:25;;;;;;;9.57;4.45;;;;;;;-0.82;78.70;99570.06;5032034;28;20044;-49
2022/11/20 02:51:51;;;;;;;10.50;4.85;;;;;;;-0.65;79.02;99604.25;5013322;28;20045;-50
2022/11/20 02:54:17;;;;;;;8.68;4.03;;;;;;;-0.77;79.04;99582.03;5031957;28;20041;-46
2022/11/20 02:56:43;;;;;;;9.40;4.75;;;;;;;-0.64;79.04;99606.84;5030321;28;20056;-46
2022/11/20 02:59:10;;;;;;;7.57;4.50;;;;;;;-0.63;79.10;99605.97;5009792;28;20042;-47
2022/11/20 03:01:36;;;;;;;10.30;5.18;;;;;;;-0.85;78.78;99570.91;5030870;28;20033;-46
2022/11/20 03:04:02;;;;;;;9.02;4.40;;;;;;;-0.69;79.00;99608.50;5012674;28;20041;-50
2022/11/20 03:06:28;;;;;;;12.10;4.85;;;;;;;-0.72;78.84;99602.47;5045575;28;20041;-50
2022/11/20 03:08:53;;;;;;;10.15;4.72;;;;;;;-0.91;78.73;99569.16;5030378;28;20037;-48
2022/11/20 03:11:20;;;;;;;11.55;4.80;;;;;;;-0.70;78.56;99608.47;4998068;28;20783;-49
2022/11/20 03:13:46;;;;;;;9.52;5.05;;;;;;;-0.70;78.84;99609.31;5013794;28;20083;-48
2022/11/20 03:16:15;;;;;;;10.57;4.78;;;;;;;-0.69;78.74;99615.28;5030364;28;20424;-49
2022/11/20 03:18:41;;;;;;;11.17;4.90;;;;;;;-0.68;78.57;99607.63;5037037;28;20432;-46
2022/11/20 03:21:08;;;;;;;8.98;4.93;;;;;;;-0.70;78.52;99606.78;5013175;28;20046;-47
2022/11/20 03:23:35;;;;;;;8.98;4.85;;;;;;;-0.69;78.54;99605.94;5030095;28;20045;-47
2022/11/20 03:26:22;;;;;;;9.18;4.38;;;;;;;-0.69;78.32;99607.63;4981170;28;20044;-48
2022/11/20 03:28:53;;;;;;;9.35;4.68;;;;;;;-0.70;78.65;99614.44;5031102;28;20045;-49
2022/11/20 03:31:21;;;;;;;10.50;5.10;;;;;;;-0.66;78.35;99607.66;5032652;28;20099;-46
2022/11/20 03:33:48;;;;;;;11.73;5.03;;;;;;;-0.68;78.25;99614.44;5031309;28;20514;-50
2022/11/20 03:36:15;;;;;;;10.65;4.95;;;;;;;-0.83;78.39;99583.66;5030518;28;20041;-49
2022/11/20 03:38:41;;;;;;;8.80;4.45;;;;;;;-0.67;78.14;99616.13;5031036;28;20402;-49
2022/11/20 03:41:13;;;;;;;12.45;4.95;;;;;;;-0.67;78.38;99614.44;5012803;28;20072;-51
2022/11/20 03:43:39;;;;;;;9.60;4.95;;;;;;;-0.66;78.26;99615.31;5029381;28;20528;-47
2022/11/20 03:46:05;;;;;;;8.90;4.47;;;;;;;-0.67;78.12;99616.13;5013469;28;20044;-51
2022/11/20 03:48:32;;;;;;;12.77;5.30;;;;;;;-0.68;78.00;99619.56;5031214;28;20048;-49
2022/11/20 03:51:21;;;;;;;12.35;5.68;;;;;;;-0.71;78.26;99620.38;5013351;28;20529;-46
2022/11/20 03:53:48;;;;;;;12.45;5.43;;;;;;;-0.73;78.12;99616.09;5041403;28;20049;-45
2022/11/20 03:56:16;;;;;;;9.25;4.80;;;;;;;-1.05;77.83;99562.22;5028613;28;20037;-52
2022/11/20 03:58:42;;;;;;;9.73;4.90;;;;;;;-1.08;77.82;99562.16;5024886;28;20096;-50
2022/11/20 04:01:09;;;;;;;10.60;4.97;;;;;;;-0.73;78.10;99631.41;5015957;28;20582;-47
2022/11/20 04:03:37;;;;;;;11.80;4.32;;;;;;;-0.73;77.76;99629.69;5030969;28;20049;-48
2022/11/20 04:06:08;;;;;;;10.38;5.03;;;;;;;-0.72;77.69;99635.66;5029105;28;20057;-45
2022/11/20 04:08:34;;;;;;;11.27;5.05;;;;;;;-0.74;77.70;99624.59;4995364;28;20045;-47
2022/11/20 04:11:20;;;;;;;14.18;5.00;;;;;;;-0.71;77.89;99637.38;5028938;28;20037;-52
2022/11/20 04:13:51;;;;;;;9.48;4.80;;;;;;;-0.89;77.87;99610.81;5012215;28;20041;-49
2022/11/20 04:16:17;;;;;;;10.23;5.10;;;;;;;-0.76;77.79;99637.34;5009745;28;20040;-48
2022/11/20 04:18:43;;;;;;;9.35;4.53;;;;;;;-0.76;77.63;99642.44;5012737;28;20045;-46
2022/11/20 04:21:10;;;;;;;11.18;4.78;;;;;;;-0.77;77.54;99647.53;5012885;28;20136;-47
2022/11/20 04:23:36;;;;;;;11.00;5.47;;;;;;;-0.82;77.66;99638.97;5028823;28;20041;-48
2022/11/20 04:26:09;;;;;;;13.45;5.57;;;;;;;-0.84;77.44;99651.72;5009075;28;20044;-52
2022/11/20 04:28:36;;;;;;;9.07;4.68;;;;;;;-0.88;77.49;99657.63;5009145;28;20033;-46
2022/11/20 04:31:15;;;;;;;11.35;5.18;;;;;;;-0.88;77.42;99661.03;5015163;28;20076;-47
2022/11/20 04:33:42;;;;;;;9.40;4.45;;;;;;;-0.84;77.45;99663.63;5010660;28;20042;-51
2022/11/20 04:36:14;;;;;;;11.85;5.28;;;;;;;-0.87;77.50;99667.00;5026509;28;20037;-50
2022/11/20 04:38:40;;;;;;;9.80;4.93;;;;;;;-0.82;77.51;99661.94;5028193;28;20072;-52
2022/11/20 04:41:08;;;;;;;10.80;5.68;;;;;;;-0.78;77.56;99671.31;5010602;28;20512;-50
2022/11/20 04:43:34;;;;;;;10.57;5.38;;;;;;;-0.76;77.47;99674.75;5028066;28;20054;-48
2022/11/20 04:46:00;;;;;;;11.18;5.40;;;;;;;-0.73;77.31;99678.19;5028534;28;20472;-53
2022/11/20 04:48:28;;;;;;;10.60;4.95;;;;;;;-0.86;77.49;99653.41;5012098;28;20531;-51
2022/11/20 04:50:54;;;;;;;10.73;5.10;;;;;;;-0.68;77.08;99681.66;5030094;28;20489;-50
2022/11/20 04:53:20;;;;;;;10.40;4.88;;;;;;;-0.67;77.21;99696.13;5029817;28;20037;-47
2022/11/20 04:55:46;;;;;;;10.80;5.35;;;;;;;-0.68;77.01;99693.59;5029650;28;20459;-46
2022/11/20 04:58:13;;;;;;;10.73;5.57;;;;;;;-0.86;76.83;99667.00;5012042;28;20512;-48
2022/11/20 05:00:39;;;;;;;14.13;5.28;;;;;;;-0.67;76.97;99702.94;4994637;28;20041;-47
2022/11/20 05:03:05;;;;;;;11.45;5.60;;;;;;;-0.84;76.29;99671.28;5011763;28;20137;-50
2022/11/20 05:05:31;;;;;;;10.25;5.25;;;;;;;-1.04;76.64;99643.84;5011936;28;20034;-46
2022/11/20 05:07:58;;;;;;;9.77;5.10;;;;;;;-0.75;76.54;99697.75;5030165;28;20051;-48
2022/11/20 05:10:25;;;;;;;10.30;5.25;;;;;;;-0.74;76.61;99702.03;5011823;28;20124;-48
2022/11/20 05:12:51;;;;;;;11.45;5.50;;;;;;;-0.75;76.21;99702.00;5026706;28;20049;-48
2022/11/20 05:15:17;;;;;;;11.30;5.32;;;;;;;-0.84;75.96;99684.91;5028102;28;20037;-49
2022/11/20 05:17:50;;;;;;;12.05;5.22;;;;;;;-0.79;76.28;99702.81;4995671;28;20061;-46
2022/11/20 05:20:16;;;;;;;9.95;5.38;;;;;;;-0.76;76.34;99702.84;5026720;28;20044;-48
2022/11/20 05:22:43;;;;;;;11.45;5.82;;;;;;;-0.85;76.47;99688.28;4995437;28;20127;-49
2022/11/20 05:25:09;;;;;;;12.32;6.13;;;;;;;-0.73;76.62;99720.75;5011017;28;20045;-52
2022/11/20 05:27:35;;;;;;;10.85;5.78;;;;;;;-0.77;76.28;99711.31;5011903;28;20140;-49
2022/11/20 05:30:02;;;;;;;13.48;6.50;;;;;;;-0.77;76.46;99727.50;5028683;28;20037;-52
2022/11/20 05:32:29;;;;;;;13.38;5.43;;;;;;;-0.84;76.43;99707.00;5031533;28;20041;-48
2022/11/20 05:34:55;;;;;;;11.70;5.93;;;;;;;-0.77;76.32;99719.84;5011665;28;20106;-48
2022/11/20 05:37:21;;;;;;;12.40;5.78;;;;;;;-0.78;76.73;99737.69;5026836;28;20560;-50
2022/11/20 05:39:46;;;;;;;12.15;6.28;;;;;;;-0.77;76.64;99731.75;5028474;28;20076;-50
2022/11/20 05:42:30;;;;;;;11.65;5.68;;;;;;;-0.93;76.64;99700.94;4995270;28;20045;-49
2022/11/20 05:45:04;;;;;;;11.68;6.22;;;;;;;-0.92;76.90;99700.13;5028935;28;20053;-51
2022/11/20 05:47:34;;;;;;;14.38;5.60;;;;;;;-0.71;77.01;99735.22;5029325;28;20065;-50
2022/11/20 05:50:00;;;;;;;14.48;6.25;;;;;;;-0.70;76.56;99728.44;5028769;28;20583;-51
2022/11/20 05:52:30;;;;;;;13.90;6.32;;;;;;;-0.84;76.91;99705.31;5027167;28;20056;-49
2022/11/20 05:54:56;;;;;;;15.77;6.15;;;;;;;-0.62;77.20;99745.53;5026988;28;20037;-47
2022/11/20 05:57:22;;;;;;;12.93;5.88;;;;;;;-0.61;76.85;99754.91;5025479;28;20476;-48
2022/11/20 05:59:48;;;;;;;14.40;6.63;;;;;;;-0.78;76.55;99715.56;5009964;28;20069;-49
2022/11/20 06:02:14;;;;;;;15.73;6.38;;;;;;;-0.63;76.81;99743.81;5011163;28;20045;-47
2022/11/20 06:04:40;;;;;;;14.05;6.80;;;;;;;-0.76;76.82;99726.66;5029035;28;20034;-48
2022/11/20 06:07:06;;;;;;;13.02;5.93;;;;;;;-0.76;76.83;99731.78;5027920;28;20045;-50
2022/11/20 06:09:32;;;;;;;14.65;6.22;;;;;;;-0.63;76.72;99763.41;5018624;28;20037;-47
2022/11/20 06:11:58;;;;;;;14.93;6.07;;;;;;;-0.63;76.77;99773.63;5026358;28;20099;-51
2022/11/20 06:14:24;;;;;;;13.10;5.88;;;;;;;-0.79;76.99;99756.41;5011318;28;20041;-48
2022/11/20 06:16:50;;;;;;;13.23;6.85;;;;;;;-0.90;76.89;99735.88;5010492;28;20063;-48
2022/11/20 06:19:16;;;;;;;17.63;6.70;;;;;;;-0.58;77.02;99777.94;5025685;28;20041;-49
2022/11/20 06:21:42;;;;;;;13.45;6.72;;;;;;;-0.53;76.92;99778.84;5010137;28;20081;-54
2022/11/20 06:24:10;;;;;;;11.27;6.03;;;;;;;-0.51;76.60;99776.31;5022820;28;20072;-47
2022/11/20 06:26:36;;;;;;;15.07;6.93;;;;;;;-0.52;76.61;99782.25;5006978;28;20060;-51
2022/11/20 06:29:02;;;;;;;15.40;6.68;;;;;;;-0.50;76.61;99783.13;5042703;28;20056;-53
2022/11/20 06:31:28;;;;;;;12.07;5.80;;;;;;;-0.63;76.51;99758.31;5024186;28;20132;-53
2022/11/20 06:33:55;;;;;;;16.00;6.68;;;;;;;-0.48;76.31;99791.69;5022276;28;20592;-48
2022/11/20 06:36:22;;;;;;;16.35;6.97;;;;;;;-0.48;76.29;99804.44;5026403;28;20086;-49
2022/11/20 06:38:48;;;;;;;17.45;7.15;;;;;;;-0.41;76.54;99796.00;5010684;28;20132;-49
2022/11/20 06:41:16;;;;;;;15.93;6.97;;;;;;;-0.43;76.09;99807.91;5012291;28;20457;-46
2022/11/20 06:43:42;;;;;;;15.73;6.97;;;;;;;-0.44;75.83;99812.16;5025348;28;20053;-49
2022/11/20 06:46:10;;;;;;;16.65;7.40;;;;;;;-0.44;76.02;99804.50;5032368;28;20076;-52
2022/11/20 06:48:36;;;;;;;16.92;7.10;;;;;;;-0.62;75.96;99776.19;5028912;28;20045;-50
2022/11/20 06:51:06;;;;;;;15.27;6.70;;;;;;;-0.43;75.97;99806.22;5026315;28;20111;-45
2022/11/20 06:53:32;;;;;;;14.68;7.25;;;;;;;-0.39;75.64;99811.34;5029936;28;20091;-47
2022/11/20 06:55:58;;;;;;;14.60;7.35;;;;;;;-0.35;75.54;99796.06;5012507;28;20467;-47
2022/11/20 06:58:27;;;;;;;15.65;6.22;;;;;;;-0.29;75.91;99800.38;5025677;28;20065;-47
2022/11/20 07:00:53;;;;;;;14.83;7.23;;;;;;;-0.30;75.85;99799.53;5033538;28;20128;-49
2022/11/20 07:03:18;;;;;;;13.77;6.38;;;;;;;-0.28;75.52;99799.56;5026488;28;20137;-52
2022/11/20 07:05:45;;;;;;;12.18;6.55;;;;;;;-0.23;75.51;99797.91;5021586;28;20148;-49
2022/11/20 07:08:12;;;;;;;14.07;6.97;;;;;;;-0.26;75.56;99803.00;5004951;28;20042;-52
2022/11/20 07:10:38;;;;;;;15.05;6.82;;;;;;;-0.25;75.45;99805.53;5042249;28;20533;-47
2022/11/20 07:13:04;;;;;;;12.18;6.53;;;;;;;-0.26;75.54;99793.59;5024897;28;20049;-51
2022/11/20 07:15:30;;;;;;;15.20;6.82;;;;;;;-0.17;75.15;99796.28;5009549;28;20037;-51
2022/11/20 07:17:59;;;;;;;16.23;7.40;;;;;;;-0.15;74.88;99794.56;5026537;28;20563;-51
2022/11/20 07:20:26;;;;;;;13.60;6.75;;;;;;;-0.05;75.03;99803.19;4986471;28;20057;-54
2022/11/20 07:22:56;;;;;;;15.13;7.35;;;;;;;-0.03;74.73;99786.19;4993429;28;20059;-53
2022/11/20 07:25:23;;;;;;;13.75;6.75;;;;;;;-0.09;74.64;99771.66;4991249;28;20413;-48
2022/11/20 07:28:01;;;;;;;14.43;6.53;;;;;;;-0.01;74.71;99810.94;5028178;28;20045;-48
2022/11/20 07:30:28;;;;;;;17.08;7.07;;;;;;;-0.07;74.57;99800.63;5012548;28;20056;-51
2022/11/20 07:32:55;;;;;;;18.08;7.78;;;;;;;-0.04;74.44;99808.31;5009687;28;20068;-53
2022/11/20 07:35:22;;;;;;;15.90;7.32;;;;;;;-0.03;74.49;99807.50;5028532;28;20041;-51
2022/11/20 07:37:48;;;;;;;16.77;7.45;;;;;;;-0.05;74.54;99809.16;5026928;28;20432;-51
2022/11/20 07:40:16;;;;;;;17.20;7.22;;;;;;;-0.03;74.55;99804.94;5023068;28;20065;-51
2022/11/20 07:43:02;;;;;;;15.38;6.63;;;;;;;-0.01;74.37;99802.41;5004519;28;20053;-48
2022/11/20 07:45:28;;;;;;;16.70;7.32;;;;;;;-0.31;74.09;99756.06;5027274;28;20050;-48
2022/11/20 07:47:54;;;;;;;19.13;7.20;;;;;;;0.03;74.07;99813.50;5021879;28;20041;-52
2022/11/20 07:50:21;;;;;;;17.25;7.38;;;;;;;0.04;74.03;99815.22;4990514;28;20063;-50
2022/11/20 07:52:47;;;;;;;15.30;7.28;;;;;;;-0.12;74.09;99797.19;5026579;28;20033;-51
2022/11/20 07:55:12;;;;;;;19.05;7.93;;;;;;;0.08;73.98;99820.38;5023739;28;20100;-54
2022/11/20 07:57:38;;;;;;;17.20;8.15;;;;;;;0.14;73.89;99817.88;5024638;28;20045;-51
2022/11/20 08:00:08;;;;;;;15.48;7.20;;;;;;;0.00;73.95;99793.91;5021532;28;20061;-55
2022/11/20 08:02:41;;;;;;;17.08;7.53;;;;;;;0.20;73.64;99814.53;4985593;28;20076;-50
2022/11/20 08:05:08;;;;;;;16.00;7.22;;;;;;;0.24;73.59;99811.16;4979284;28;20037;-50
2022/11/20 08:07:42;;;;;;;15.63;6.68;;;;;;;0.30;73.65;99803.53;5022026;28;20044;-50
2022/11/20 08:10:10;;;;;;;18.92;8.57;;;;;;;0.23;73.56;99805.16;5024057;28;20033;-49
2022/11/20 08:15:20;;;;;;;15.50;7.65;;;;;;;0.32;73.35;99828.25;5030819;28;20079;-50
2022/11/20 08:17:46;;;;;;;19.73;7.50;;;;;;;0.27;73.29;99808.59;5024527;28;20065;-50
2022/11/20 08:20:12;;;;;;;15.05;7.03;;;;;;;0.25;73.19;99798.38;5026034;28;20111;-52
2022/11/20 08:22:38;;;;;;;14.45;7.45;;;;;;;0.41;73.01;99835.19;5010385;28;20508;-52
2022/11/20 08:25:04;;;;;;;17.40;8.05;;;;;;;0.30;72.65;99816.31;5011399;28;20095;-50
2022/11/20 08:27:31;;;;;;;17.25;8.13;;;;;;;0.40;72.45;99844.53;5030277;28;20038;-49
2022/11/20 08:29:57;;;;;;;17.20;7.85;;;;;;;0.41;72.65;99827.50;5028864;28;20132;-50
2022/11/20 08:32:23;;;;;;;16.58;8.32;;;;;;;0.45;72.60;99830.94;5022841;28;20143;-51
2022/11/20 08:34:49;;;;;;;20.98;7.97;;;;;;;0.49;72.12;99825.00;5048741;28;20040;-49
2022/11/20 08:37:15;;;;;;;17.33;8.07;;;;;;;0.34;72.47;99810.38;5048650;28;20090;-50
2022/11/20 08:39:41;;;;;;;16.98;7.82;;;;;;;0.57;72.30;99844.69;5048412;28;20681;-54
2022/11/20 08:42:08;;;;;;;17.67;8.38;;;;;;;0.62;72.49;99844.72;5045813;28;20068;-51
2022/11/20 08:44:34;;;;;;;18.27;8.70;;;;;;;0.49;71.90;99819.88;5030000;28;20049;-50
2022/11/20 08:47:00;;;;;;;18.52;8.48;;;;;;;0.72;72.00;99842.25;5045353;28;20042;-49
2022/11/20 08:49:26;;;;;;;18.95;8.85;;;;;;;0.59;71.71;99821.66;5029704;28;20585;-50
2022/11/20 08:51:54;;;;;;;16.30;8.18;;;;;;;0.78;72.10;99857.66;5028401;28;20049;-50
2022/11/20 08:54:21;;;;;;;18.17;8.45;;;;;;;0.62;71.99;99825.13;5028665;28;20071;-47
2022/11/20 08:56:48;;;;;;;21.58;8.50;;;;;;;0.84;71.74;99857.69;5028937;28;20531;-48
2022/11/20 08:59:13;;;;;;;18.30;8.20;;;;;;;0.88;71.63;99863.69;5029570;28;20099;-49
2022/11/20 09:01:39;;;;;;;16.65;8.48;;;;;;;0.93;71.55;99862.03;5012396;28;20489;-49
2022/11/20 09:04:05;;;;;;;23.75;9.35;;;;;;;0.96;71.19;99871.41;5029071;28;20049;-50
2022/11/20 09:06:31;;;;;;;19.98;9.40;;;;;;;0.73;71.66;99846.50;5029480;28;20029;-48
2022/11/20 09:08:57;;;;;;;18.95;9.32;;;;;;;0.79;71.36;99861.91;5027992;28;20107;-50
2022/11/20 09:11:23;;;;;;;20.52;8.93;;;;;;;1.00;71.39;99891.06;5029498;28;20255;-53
2022/11/20 09:13:49;;;;;;;20.08;9.90;;;;;;;0.71;71.17;99848.22;5029636;28;20044;-49
2022/11/20 09:16:15;;;;;;;19.52;9.77;;;;;;;1.10;71.00;99896.25;5028178;28;20095;-50
2022/11/20 09:18:41;;;;;;;24.23;10.45;;;;;;;1.16;71.20;99898.00;5029696;28;20037;-51
2022/11/20 09:21:10;;;;;;;23.63;10.00;;;;;;;1.14;70.79;99892.03;5029441;28;20068;-49
2022/11/20 09:23:37;;;;;;;20.45;9.68;;;;;;;1.08;70.84;99887.72;5011884;28;20037;-49
2022/11/20 09:26:10;;;;;;;22.70;9.93;;;;;;;1.15;71.00;99920.19;5011666;28;20042;-55
2022/11/20 09:28:37;;;;;;;22.15;10.23;;;;;;;1.17;70.61;99925.31;5029408;28;20080;-48
2022/11/20 09:31:07;;;;;;;25.70;11.05;;;;;;;1.07;70.58;99924.41;5029396;28;20041;-48
2022/11/20 09:33:33;;;;;;;24.10;10.57;;;;;;;0.91;70.50;99925.13;5027483;28;20041;-48
2022/11/20 09:35:59;;;;;;;25.85;11.73;;;;;;;0.81;70.51;99913.09;5044163;28;20046;-51
2022/11/20 09:38:25;;;;;;;30.55;11.60;;;;;;;1.00;70.53;99945.69;5028118;28;20043;-52
2022/11/20 09:40:58;;;;;;;23.92;11.02;;;;;;;1.02;70.13;99930.34;5029228;28;20049;-50
2022/11/20 09:43:42;;;;;;;21.05;10.70;;;;;;;1.06;70.26;99940.59;5011637;28;20144;-51
2022/11/20 09:46:27;;;;;;;25.52;10.98;;;;;;;1.05;70.33;99949.13;5027889;28;20048;-51
2022/11/20 09:49:15;;;;;;;20.80;9.90;;;;;;;1.05;70.57;99945.72;5010712;28;20156;-52
2022/11/20 09:51:53;;;;;;;23.92;11.13;;;;;;;1.08;70.89;99949.16;5027617;28;20091;-52
2022/11/20 09:54:20;;;;;;;24.45;11.63;;;;;;;1.02;70.92;99941.44;5026421;28;20132;-52
2022/11/20 09:57:17;;;;;;;23.23;11.27;;;;;;;1.06;71.69;99940.59;5011581;28;20041;-48
2022/11/20 09:59:46;;;;;;;24.23;11.05;;;;;;;1.09;71.42;99938.09;4992006;28;20147;-44
2022/11/20 10:02:24;;;;;;;22.88;10.32;;;;;;;1.13;72.16;99942.38;5012475;28;20038;-48
2022/11/20 10:05:12;;;;;;;23.15;10.13;;;;;;;1.15;71.92;99934.72;5033505;28;20065;-44
2022/11/20 10:07:47;;;;;;;31.30;12.25;;;;;;;0.98;72.37;99943.97;5011045;28;20048;-51
2022/11/20 10:10:16;;;;;;;31.10;11.20;;;;;;;0.76;73.37;99943.78;5025011;28;20160;-47
2022/11/20 10:12:57;;;;;;;30.10;12.63;;;;;;;0.56;74.07;99945.28;5027402;28;20041;-47
2022/11/20 10:15:46;;;;;;;33.60;12.35;;;;;;;0.44;74.40;99952.81;5039903;28;20237;-45
2022/11/20 10:18:34;;;;;;;44.92;13.15;;;;;;;0.51;75.10;99953.75;5023278;28;20076;-48
2022/11/20 10:21:24;;;;;;;30.00;12.30;;;;;;;0.68;75.10;99962.47;5032240;28;20053;-46
2022/11/20 10:23:57;;;;;;;29.88;12.00;;;;;;;0.17;75.42;99909.91;5031657;28;20045;-47
2022/11/20 10:26:40;;;;;;;25.38;10.60;;;;;;;0.46;75.56;99950.28;5007876;28;20504;-47
2022/11/20 10:29:17;;;;;;;22.60;10.43;;;;;;;0.33;76.84;99959.53;5022286;28;20048;-51
2022/11/20 10:32:04;;;;;;;27.42;11.25;;;;;;;0.31;76.59;99956.97;5028389;28;20041;-45
2022/11/20 10:34:38;;;;;;;24.85;10.15;;;;;;;0.21;77.66;99955.13;5028363;28;20505;-48
2022/11/20 10:37:31;;;;;;;34.42;11.77;;;;;;;0.16;78.18;99954.22;5012795;28;20056;-46
2022/11/20 10:40:23;;;;;;;26.92;11.82;;;;;;;0.25;78.49;99956.03;5022241;28;20428;-47
2022/11/20 10:42:55;;;;;;;26.92;11.35;;;;;;;0.13;78.19;99941.41;5029090;28;20505;-48
2022/11/20 10:45:24;;;;;;;26.42;11.00;;;;;;;0.33;78.66;99950.16;5014670;28;20036;-46
2022/11/20 10:47:54;;;;;;;28.27;10.50;;;;;;;0.29;78.48;99961.19;5030244;28;20046;-46
2022/11/20 10:50:22;;;;;;;26.90;10.65;;;;;;;0.41;79.05;99965.59;5029154;28;20445;-43
2022/11/20 10:53:07;;;;;;;29.48;10.82;;;;;;;0.31;78.97;99979.13;5030795;28;20611;-44
2022/11/20 10:55:40;;;;;;;18.20;7.90;;;;;;;0.26;78.96;99983.31;5028951;28;20111;-46
2022/11/20 10:58:24;;;;;;;29.90;11.20;;;;;;;0.23;78.90;99979.03;5029813;28;20037;-45
2022/11/20 11:00:51;;;;;;;20.17;7.35;;;;;;;0.22;79.39;99974.75;5012205;28;20046;-49
2022/11/20 11:03:27;;;;;;;23.33;10.77;;;;;;;0.22;79.43;99971.31;5027760;28;20049;-47
2022/11/20 11:05:56;;;;;;;25.15;10.60;;;;;;;0.36;79.54;99969.81;5028956;28;20033;-45
2022/11/20 11:08:21;;;;;;;26.30;10.73;;;;;;;0.46;79.20;99981.84;5011212;28;20048;-46
2022/11/20 11:10:59;;;;;;;18.17;7.45;;;;;;;0.42;78.76;99972.41;5016541;28;20037;-48
2022/11/20 11:13:28;;;;;;;22.83;9.20;;;;;;;0.36;78.78;99980.91;5027892;28;20049;-46
2022/11/20 11:15:55;;;;;;;21.13;9.75;;;;;;;0.30;78.98;99962.94;5013398;28;20087;-44
2022/11/20 11:18:29;;;;;;;22.40;9.05;;;;;;;0.43;78.83;99990.34;5026394;28;20037;-49
2022/11/20 11:20:56;;;;;;;21.35;8.75;;;;;;;0.33;78.72;99993.63;5011275;28;20045;-43
2022/11/20 11:23:43;;;;;;;20.92;8.68;;;;;;;0.37;78.68;100003.03;5029562;28;20531;-47
2022/11/20 11:26:21;;;;;;;22.75;9.23;;;;;;;0.43;78.61;99999.69;5025345;28;20156;-49
2022/11/20 11:28:58;;;;;;;20.85;8.40;;;;;;;0.37;78.54;100002.19;5046963;28;20060;-50
2022/11/20 11:31:26;;;;;;;17.25;6.82;;;;;;;0.22;78.26;99989.22;5032720;28;20107;-45
2022/11/20 11:34:03;;;;;;;20.45;7.88;;;;;;;0.00;78.15;99963.41;5041818;28;20072;-49
2022/11/20 11:36:29;;;;;;;18.27;7.80;;;;;;;-0.24;78.13;99941.78;5028414;28;20583;-46
2022/11/20 11:38:55;;;;;;;20.13;8.25;;;;;;;0.00;78.16;99995.78;5029289;28;20041;-47
2022/11/20 11:41:24;;;;;;;22.95;8.93;;;;;;;0.13;78.33;99999.34;5013484;28;20087;-43